sensor_id;sensor_type;location;lat;lon;timestamp;P1;durP1;ratioP1;P2;durP2;ratioP2
29984;SDS011;17387;42.690;23.328;2022-09-21T00:00:45;10.80;;;7.03;;
29984;SDS011;17387;42.690;23.328;2022-09-21T00:03:14;11.13;;;6.65;;
29984;SDS011;17387;42.690;23.328;2022-09-21T00:05:49;8.75;;;6.65;;
29984;SDS011;17387;42.690;23.328;2022-09-21T00:08:14;11.40;;;6.35;;
29984;SDS011;17387;42.690;23.328;2022-09-21T00:10:40;9.85;;;6.30;;
29984;SDS011;17387;42.690;23.328;2022-09-21T00:13:16;8.80;;;6.00;;
29984;SDS011;17387;42.690;23.328;2022-09-21T00:15:45;8.63;;;5.53;;
29984;SDS011;17387;42.690;23.328;2022-09-21T00:18:10;7.78;;;5.25;;
29984;SDS011;17387;42.690;23.328;2022-09-21T00:20:39;10.38;;;5.70;;
29984;SDS011;17387;42.690;23.328;2022-09-21T00:23:11;8.30;;;5.22;;
29984;SDS011;17387;42.690;23.328;2022-09-21T00:25:37;7.38;;;5.07;;
29984;SDS011;17387;42.690;23.328;2022-09-21T00:28:02;7.78;;;5.75;;
29984;SDS011;17387;42.690;23.328;2022-09-21T00:30:28;6.50;;;5.65;;
29984;SDS011;17387;42.690;23.328;2022-09-21T00:32:56;7.28;;;5.60;;
29984;SDS011;17387;42.690;23.328;2022-09-21T00:35:22;6.18;;;5.20;;
29984;SDS011;17387;42.690;23.328;2022-09-21T00:37:47;10.40;;;6.03;;
29984;SDS011;17387;42.690;23.328;2022-09-21T00:40:13;8.90;;;5.82;;
29984;SDS011;17387;42.690;23.328;2022-09-21T00:42:38;7.82;;;5.60;;
29984;SDS011;17387;42.690;23.328;2022-09-21T00:45:05;8.60;;;6.13;;
29984;SDS011;17387;42.690;23.328;2022-09-21T00:47:34;7.30;;;5.57;;
29984;SDS011;17387;42.690;23.328;2022-09-21T00:50:08;8.07;;;5.40;;
29984;SDS011;17387;42.690;23.328;2022-09-21T00:52:41;6.30;;;5.28;;
29984;SDS011;17387;42.690;23.328;2022-09-21T00:55:12;5.95;;;5.30;;
29984;SDS011;17387;42.690;23.328;2022-09-21T00:57:42;7.15;;;5.25;;
29984;SDS011;17387;42.690;23.328;2022-09-21T01:00:10;7.82;;;5.10;;
29984;SDS011;17387;42.690;23.328;2022-09-21T01:02:37;6.10;;;5.30;;
29984;SDS011;17387;42.690;23.328;2022-09-21T01:05:06;7.00;;;4.90;;
29984;SDS011;17387;42.690;23.328;2022-09-21T01:07:33;6.20;;;5.20;;
29984;SDS011;17387;42.690;23.328;2022-09-21T01:10:10;5.68;;;5.07;;
29984;SDS011;17387;42.690;23.328;2022-09-21T01:15:49;5.40;;;4.60;;
29984;SDS011;17387;42.690;23.328;2022-09-21T01:26:42;9.82;;;5.10;;
29984;SDS011;17387;42.690;23.328;2022-09-21T01:29:43;6.90;;;4.88;;
29984;SDS011;17387;42.690;23.328;2022-09-21T01:32:35;6.13;;;5.00;;
29984;SDS011;17387;42.690;23.328;2022-09-21T01:37:43;6.05;;;4.80;;
29984;SDS011;17387;42.690;23.328;2022-09-21T01:40:16;6.07;;;4.72;;
29984;SDS011;17387;42.690;23.328;2022-09-21T01:42:46;7.22;;;5.35;;
29984;SDS011;17387;42.690;23.328;2022-09-21T01:45:14;7.30;;;4.90;;
29984;SDS011;17387;42.690;23.328;2022-09-21T01:47:44;7.13;;;4.90;;
29984;SDS011;17387;42.690;23.328;2022-09-21T01:50:13;7.55;;;5.18;;
29984;SDS011;17387;42.690;23.328;2022-09-21T01:55:32;6.80;;;5.10;;
29984;SDS011;17387;42.690;23.328;2022-09-21T01:58:17;6.88;;;4.93;;
29984;SDS011;17387;42.690;23.328;2022-09-21T02:00:48;6.30;;;4.95;;
29984;SDS011;17387;42.690;23.328;2022-09-21T02:06:34;6.47;;;4.70;;
29984;SDS011;17387;42.690;23.328;2022-09-21T02:09:04;6.68;;;4.90;;
29984;SDS011;17387;42.690;23.328;2022-09-21T02:11:29;6.78;;;5.15;;
29984;SDS011;17387;42.690;23.328;2022-09-21T02:13:55;7.38;;;4.95;;
29984;SDS011;17387;42.690;23.328;2022-09-21T02:19:20;6.07;;;4.80;;
29984;SDS011;17387;42.690;23.328;2022-09-21T02:22:10;6.07;;;4.75;;
29984;SDS011;17387;42.690;23.328;2022-09-21T02:24:46;9.57;;;4.68;;
29984;SDS011;17387;42.690;23.328;2022-09-21T02:27:26;7.25;;;4.60;;
29984;SDS011;17387;42.690;23.328;2022-09-21T02:32:35;5.63;;;4.78;;
29984;SDS011;17387;42.690;23.328;2022-09-21T02:35:39;7.25;;;5.53;;
29984;SDS011;17387;42.690;23.328;2022-09-21T02:41:12;5.10;;;4.60;;
29984;SDS011;17387;42.690;23.328;2022-09-21T02:49:06;7.07;;;4.90;;
29984;SDS011;17387;42.690;23.328;2022-09-21T02:51:41;7.18;;;5.15;;
29984;SDS011;17387;42.690;23.328;2022-09-21T02:54:15;6.22;;;4.63;;
29984;SDS011;17387;42.690;23.328;2022-09-21T02:56:46;6.00;;;4.97;;
29984;SDS011;17387;42.690;23.328;2022-09-21T02:59:13;8.13;;;5.05;;
29984;SDS011;17387;42.690;23.328;2022-09-21T03:01:40;7.00;;;4.95;;
29984;SDS011;17387;42.690;23.328;2022-09-21T03:04:07;7.20;;;5.05;;
29984;SDS011;17387;42.690;23.328;2022-09-21T03:06:33;5.65;;;4.80;;
29984;SDS011;17387;42.690;23.328;2022-09-21T03:08:59;5.90;;;4.78;;
29984;SDS011;17387;42.690;23.328;2022-09-21T03:11:25;6.38;;;5.78;;
29984;SDS011;17387;42.690;23.328;2022-09-21T03:13:51;8.10;;;5.72;;
29984;SDS011;17387;42.690;23.328;2022-09-21T03:16:17;6.93;;;5.57;;
29984;SDS011;17387;42.690;23.328;2022-09-21T03:18:42;9.65;;;6.00;;
29984;SDS011;17387;42.690;23.328;2022-09-21T03:21:09;8.50;;;6.10;;
29984;SDS011;17387;42.690;23.328;2022-09-21T03:23:36;7.18;;;5.38;;
29984;SDS011;17387;42.690;23.328;2022-09-21T03:26:04;8.20;;;5.90;;
29984;SDS011;17387;42.690;23.328;2022-09-21T03:28:33;9.73;;;5.80;;
29984;SDS011;17387;42.690;23.328;2022-09-21T03:30:59;6.70;;;5.40;;
29984;SDS011;17387;42.690;23.328;2022-09-21T03:33:25;6.13;;;5.10;;
29984;SDS011;17387;42.690;23.328;2022-09-21T03:35:50;5.80;;;4.97;;
29984;SDS011;17387;42.690;23.328;2022-09-21T03:38:17;9.45;;;5.70;;
29984;SDS011;17387;42.690;23.328;2022-09-21T03:40:46;7.32;;;5.40;;
29984;SDS011;17387;42.690;23.328;2022-09-21T03:43:13;8.55;;;5.40;;
29984;SDS011;17387;42.690;23.328;2022-09-21T03:45:40;8.07;;;5.45;;
29984;SDS011;17387;42.690;23.328;2022-09-21T03:48:06;6.45;;;5.75;;
29984;SDS011;17387;42.690;23.328;2022-09-21T03:50:33;9.65;;;6.18;;
29984;SDS011;17387;42.690;23.328;2022-09-21T03:52:59;7.97;;;6.85;;
29984;SDS011;17387;42.690;23.328;2022-09-21T03:55:27;10.73;;;7.13;;
29984;SDS011;17387;42.690;23.328;2022-09-21T03:57:54;11.25;;;7.45;;
29984;SDS011;17387;42.690;23.328;2022-09-21T04:00:19;9.10;;;6.50;;
29984;SDS011;17387;42.690;23.328;2022-09-21T04:02:50;10.07;;;6.90;;
29984;SDS011;17387;42.690;23.328;2022-09-21T04:05:18;11.23;;;6.88;;
29984;SDS011;17387;42.690;23.328;2022-09-21T04:07:47;11.40;;;7.28;;
29984;SDS011;17387;42.690;23.328;2022-09-21T04:10:20;11.85;;;7.72;;
29984;SDS011;17387;42.690;23.328;2022-09-21T04:12:50;11.40;;;7.25;;
29984;SDS011;17387;42.690;23.328;2022-09-21T04:15:17;14.70;;;7.47;;
29984;SDS011;17387;42.690;23.328;2022-09-21T04:17:44;11.52;;;7.40;;
29984;SDS011;17387;42.690;23.328;2022-09-21T04:20:10;15.95;;;8.30;;
29984;SDS011;17387;42.690;23.328;2022-09-21T04:25:11;9.82;;;7.30;;
29984;SDS011;17387;42.690;23.328;2022-09-21T04:27:37;12.50;;;7.60;;
29984;SDS011;17387;42.690;23.328;2022-09-21T04:30:04;12.45;;;6.68;;
29984;SDS011;17387;42.690;23.328;2022-09-21T04:32:30;10.45;;;7.53;;
29984;SDS011;17387;42.690;23.328;2022-09-21T04:34:56;10.25;;;7.43;;
29984;SDS011;17387;42.690;23.328;2022-09-21T04:37:22;9.57;;;6.20;;
29984;SDS011;17387;42.690;23.328;2022-09-21T04:39:47;8.85;;;6.70;;
29984;SDS011;17387;42.690;23.328;2022-09-21T04:42:13;8.77;;;6.60;;
29984;SDS011;17387;42.690;23.328;2022-09-21T04:44:39;11.25;;;7.18;;
29984;SDS011;17387;42.690;23.328;2022-09-21T04:47:04;12.27;;;6.47;;
29984;SDS011;17387;42.690;23.328;2022-09-21T04:49:29;12.15;;;6.70;;
29984;SDS011;17387;42.690;23.328;2022-09-21T04:51:55;14.48;;;9.30;;
29984;SDS011;17387;42.690;23.328;2022-09-21T04:54:20;16.83;;;12.30;;
29984;SDS011;17387;42.690;23.328;2022-09-21T04:56:46;21.55;;;12.25;;
29984;SDS011;17387;42.690;23.328;2022-09-21T04:59:11;14.38;;;9.55;;
29984;SDS011;17387;42.690;23.328;2022-09-21T05:01:37;14.32;;;8.20;;
29984;SDS011;17387;42.690;23.328;2022-09-21T05:04:03;14.60;;;8.13;;
29984;SDS011;17387;42.690;23.328;2022-09-21T05:06:28;12.98;;;7.68;;
29984;SDS011;17387;42.690;23.328;2022-09-21T05:08:55;15.18;;;7.18;;
29984;SDS011;17387;42.690;23.328;2022-09-21T05:11:39;10.15;;;7.40;;
29984;SDS011;17387;42.690;23.328;2022-09-21T05:14:05;16.27;;;8.15;;
29984;SDS011;17387;42.690;23.328;2022-09-21T05:16:31;22.98;;;10.43;;
29984;SDS011;17387;42.690;23.328;2022-09-21T05:18:57;28.15;;;10.52;;
29984;SDS011;17387;42.690;23.328;2022-09-21T05:21:22;21.85;;;9.02;;
29984;SDS011;17387;42.690;23.328;2022-09-21T05:23:47;16.95;;;8.55;;
29984;SDS011;17387;42.690;23.328;2022-09-21T05:26:13;11.63;;;7.32;;
29984;SDS011;17387;42.690;23.328;2022-09-21T05:28:38;17.55;;;7.65;;
29984;SDS011;17387;42.690;23.328;2022-09-21T05:33:29;11.48;;;7.15;;
29984;SDS011;17387;42.690;23.328;2022-09-21T05:36:08;13.30;;;6.85;;
29984;SDS011;17387;42.690;23.328;2022-09-21T05:39:14;14.05;;;7.00;;
29984;SDS011;17387;42.690;23.328;2022-09-21T05:41:40;9.77;;;6.60;;
29984;SDS011;17387;42.690;23.328;2022-09-21T05:44:06;17.45;;;6.97;;
29984;SDS011;17387;42.690;23.328;2022-09-21T05:46:36;14.65;;;7.05;;
29984;SDS011;17387;42.690;23.328;2022-09-21T05:49:13;9.83;;;6.17;;
29984;SDS011;17387;42.690;23.328;2022-09-21T05:57:59;9.27;;;5.63;;
29984;SDS011;17387;42.690;23.328;2022-09-21T06:00:44;12.15;;;5.55;;
29984;SDS011;17387;42.690;23.328;2022-09-21T06:03:33;8.30;;;5.50;;
29984;SDS011;17387;42.690;23.328;2022-09-21T06:06:11;10.88;;;4.57;;
29984;SDS011;17387;42.690;23.328;2022-09-21T06:08:46;11.82;;;5.45;;
29984;SDS011;17387;42.690;23.328;2022-09-21T06:11:31;12.55;;;4.80;;
29984;SDS011;17387;42.690;23.328;2022-09-21T06:14:08;10.10;;;5.07;;
29984;SDS011;17387;42.690;23.328;2022-09-21T06:16:39;6.63;;;5.22;;
29984;SDS011;17387;42.690;23.328;2022-09-21T06:19:10;7.43;;;5.13;;
29984;SDS011;17387;42.690;23.328;2022-09-21T06:21:42;7.18;;;5.05;;
29984;SDS011;17387;42.690;23.328;2022-09-21T06:24:10;10.13;;;5.40;;
29984;SDS011;17387;42.690;23.328;2022-09-21T06:26:36;8.38;;;4.57;;
29984;SDS011;17387;42.690;23.328;2022-09-21T06:29:10;10.63;;;5.00;;
29984;SDS011;17387;42.690;23.328;2022-09-21T06:31:38;6.30;;;4.38;;
29984;SDS011;17387;42.690;23.328;2022-09-21T06:34:15;7.18;;;4.93;;
29984;SDS011;17387;42.690;23.328;2022-09-21T06:36:44;8.25;;;4.35;;
29984;SDS011;17387;42.690;23.328;2022-09-21T06:39:12;9.18;;;3.80;;
29984;SDS011;17387;42.690;23.328;2022-09-21T06:41:42;8.32;;;4.10;;
29984;SDS011;17387;42.690;23.328;2022-09-21T06:44:17;5.90;;;4.25;;
29984;SDS011;17387;42.690;23.328;2022-09-21T06:46:45;6.22;;;3.47;;
29984;SDS011;17387;42.690;23.328;2022-09-21T06:49:13;7.28;;;3.92;;
29984;SDS011;17387;42.690;23.328;2022-09-21T06:51:46;11.90;;;3.80;;
29984;SDS011;17387;42.690;23.328;2022-09-21T06:54:12;8.65;;;2.90;;
29984;SDS011;17387;42.690;23.328;2022-09-21T07:04:23;7.43;;;4.15;;
29984;SDS011;17387;42.690;23.328;2022-09-21T07:06:49;15.73;;;4.68;;
29984;SDS011;17387;42.690;23.328;2022-09-21T07:09:15;5.78;;;3.85;;
29984;SDS011;17387;42.690;23.328;2022-09-21T07:11:40;7.05;;;3.42;;
29984;SDS011;17387;42.690;23.328;2022-09-21T07:14:06;7.95;;;3.22;;
29984;SDS011;17387;42.690;23.328;2022-09-21T07:16:32;7.38;;;3.30;;
29984;SDS011;17387;42.690;23.328;2022-09-21T07:18:57;6.68;;;3.83;;
29984;SDS011;17387;42.690;23.328;2022-09-21T07:21:23;7.15;;;3.92;;
29984;SDS011;17387;42.690;23.328;2022-09-21T07:23:48;7.35;;;3.00;;
29984;SDS011;17387;42.690;23.328;2022-09-21T07:26:14;4.85;;;3.40;;
29984;SDS011;17387;42.690;23.328;2022-09-21T07:28:39;5.35;;;3.35;;
29984;SDS011;17387;42.690;23.328;2022-09-21T07:31:09;8.75;;;3.80;;
29984;SDS011;17387;42.690;23.328;2022-09-21T07:33:38;6.55;;;3.20;;
29984;SDS011;17387;42.690;23.328;2022-09-21T07:36:04;5.68;;;3.53;;
29984;SDS011;17387;42.690;23.328;2022-09-21T07:38:35;4.82;;;3.20;;
29984;SDS011;17387;42.690;23.328;2022-09-21T07:41:03;6.25;;;3.58;;
29984;SDS011;17387;42.690;23.328;2022-09-21T07:43:28;8.43;;;3.25;;
29984;SDS011;17387;42.690;23.328;2022-09-21T07:45:54;8.15;;;3.40;;
29984;SDS011;17387;42.690;23.328;2022-09-21T07:48:20;6.43;;;3.20;;
29984;SDS011;17387;42.690;23.328;2022-09-21T07:50:46;6.10;;;3.22;;
29984;SDS011;17387;42.690;23.328;2022-09-21T07:53:13;6.47;;;2.90;;
29984;SDS011;17387;42.690;23.328;2022-09-21T07:55:41;6.03;;;3.42;;
29984;SDS011;17387;42.690;23.328;2022-09-21T07:58:06;5.63;;;3.85;;
29984;SDS011;17387;42.690;23.328;2022-09-21T08:00:50;7.55;;;3.55;;
29984;SDS011;17387;42.690;23.328;2022-09-21T08:03:16;5.45;;;3.70;;
29984;SDS011;17387;42.690;23.328;2022-09-21T08:05:41;6.75;;;3.40;;
29984;SDS011;17387;42.690;23.328;2022-09-21T08:08:07;4.13;;;3.08;;
29984;SDS011;17387;42.690;23.328;2022-09-21T08:10:33;5.72;;;3.28;;
29984;SDS011;17387;42.690;23.328;2022-09-21T08:12:59;3.47;;;2.78;;
29984;SDS011;17387;42.690;23.328;2022-09-21T08:15:25;5.90;;;2.97;;
29984;SDS011;17387;42.690;23.328;2022-09-21T08:17:51;6.03;;;3.22;;
29984;SDS011;17387;42.690;23.328;2022-09-21T08:20:18;4.60;;;3.00;;
29984;SDS011;17387;42.690;23.328;2022-09-21T08:22:43;5.40;;;3.15;;
29984;SDS011;17387;42.690;23.328;2022-09-21T08:25:09;12.35;;;3.22;;
29984;SDS011;17387;42.690;23.328;2022-09-21T08:27:35;6.82;;;3.22;;
29984;SDS011;17387;42.690;23.328;2022-09-21T08:30:01;5.22;;;3.00;;
29984;SDS011;17387;42.690;23.328;2022-09-21T08:32:27;5.07;;;2.95;;
29984;SDS011;17387;42.690;23.328;2022-09-21T08:34:52;4.55;;;2.70;;
29984;SDS011;17387;42.690;23.328;2022-09-21T08:37:18;4.28;;;2.70;;
29984;SDS011;17387;42.690;23.328;2022-09-21T08:39:45;4.18;;;2.65;;
29984;SDS011;17387;42.690;23.328;2022-09-21T08:45:05;5.60;;;3.50;;
29984;SDS011;17387;42.690;23.328;2022-09-21T08:47:41;7.05;;;2.58;;
29984;SDS011;17387;42.690;23.328;2022-09-21T08:50:21;4.28;;;2.42;;
29984;SDS011;17387;42.690;23.328;2022-09-21T08:52:49;5.38;;;2.22;;
29984;SDS011;17387;42.690;23.328;2022-09-21T08:55:21;6.57;;;2.92;;
29984;SDS011;17387;42.690;23.328;2022-09-21T08:57:48;7.72;;;3.00;;
29984;SDS011;17387;42.690;23.328;2022-09-21T09:00:14;5.45;;;2.22;;
29984;SDS011;17387;42.690;23.328;2022-09-21T09:10:55;6.28;;;3.00;;
29984;SDS011;17387;42.690;23.328;2022-09-21T09:18:52;4.32;;;2.15;;
29984;SDS011;17387;42.690;23.328;2022-09-21T09:21:26;2.00;;;1.70;;
29984;SDS011;17387;42.690;23.328;2022-09-21T09:24:02;2.72;;;1.90;;
29984;SDS011;17387;42.690;23.328;2022-09-21T09:26:41;4.63;;;1.60;;
29984;SDS011;17387;42.690;23.328;2022-09-21T09:31:41;6.78;;;2.10;;
29984;SDS011;17387;42.690;23.328;2022-09-21T09:36:45;2.47;;;1.80;;
29984;SDS011;17387;42.690;23.328;2022-09-21T09:39:14;6.40;;;2.40;;
29984;SDS011;17387;42.690;23.328;2022-09-21T09:41:46;3.63;;;2.05;;
29984;SDS011;17387;42.690;23.328;2022-09-21T09:50:20;4.88;;;2.40;;
29984;SDS011;17387;42.690;23.328;2022-09-21T09:52:51;7.57;;;2.55;;
29984;SDS011;17387;42.690;23.328;2022-09-21T09:55:22;3.47;;;1.83;;
29984;SDS011;17387;42.690;23.328;2022-09-21T09:57:50;7.35;;;3.00;;
29984;SDS011;17387;42.690;23.328;2022-09-21T10:00:19;6.47;;;2.60;;
29984;SDS011;17387;42.690;23.328;2022-09-21T10:02:52;4.20;;;2.58;;
29984;SDS011;17387;42.690;23.328;2022-09-21T10:05:23;4.90;;;2.67;;
29984;SDS011;17387;42.690;23.328;2022-09-21T10:07:55;4.80;;;1.90;;
29984;SDS011;17387;42.690;23.328;2022-09-21T10:10:22;3.15;;;2.03;;
29984;SDS011;17387;42.690;23.328;2022-09-21T10:12:56;4.53;;;2.28;;
29984;SDS011;17387;42.690;23.328;2022-09-21T10:15:29;2.88;;;1.90;;
29984;SDS011;17387;42.690;23.328;2022-09-21T10:18:05;4.72;;;1.67;;
29984;SDS011;17387;42.690;23.328;2022-09-21T10:20:41;2.65;;;2.08;;
29984;SDS011;17387;42.690;23.328;2022-09-21T10:23:18;3.13;;;1.73;;
29984;SDS011;17387;42.690;23.328;2022-09-21T10:25:44;5.00;;;3.28;;
29984;SDS011;17387;42.690;23.328;2022-09-21T10:28:18;4.85;;;3.10;;
29984;SDS011;17387;42.690;23.328;2022-09-21T10:30:47;1.50;;;1.23;;
29984;SDS011;17387;42.690;23.328;2022-09-21T10:33:19;5.15;;;2.08;;
29984;SDS011;17387;42.690;23.328;2022-09-21T10:35:50;2.05;;;1.50;;
29984;SDS011;17387;42.690;23.328;2022-09-21T10:38:18;3.72;;;1.60;;
29984;SDS011;17387;42.690;23.328;2022-09-21T10:40:45;1.90;;;1.25;;
29984;SDS011;17387;42.690;23.328;2022-09-21T10:43:26;2.88;;;1.55;;
29984;SDS011;17387;42.690;23.328;2022-09-21T10:45:57;4.68;;;1.27;;
29984;SDS011;17387;42.690;23.328;2022-09-21T10:48:24;3.05;;;1.48;;
29984;SDS011;17387;42.690;23.328;2022-09-21T10:50:52;2.05;;;1.00;;
29984;SDS011;17387;42.690;23.328;2022-09-21T10:58:22;3.45;;;1.33;;
29984;SDS011;17387;42.690;23.328;2022-09-21T11:00:49;2.72;;;1.83;;
29984;SDS011;17387;42.690;23.328;2022-09-21T11:06:05;2.45;;;1.60;;
29984;SDS011;17387;42.690;23.328;2022-09-21T11:08:37;2.63;;;1.50;;
29984;SDS011;17387;42.690;23.328;2022-09-21T11:16:46;2.28;;;1.40;;
29984;SDS011;17387;42.690;23.328;2022-09-21T11:22:11;3.28;;;1.33;;
29984;SDS011;17387;42.690;23.328;2022-09-21T11:27:32;4.32;;;1.20;;
29984;SDS011;17387;42.690;23.328;2022-09-21T11:35:50;2.33;;;1.30;;
29984;SDS011;17387;42.690;23.328;2022-09-21T11:43:59;4.90;;;1.80;;
29984;SDS011;17387;42.690;23.328;2022-09-21T11:49:43;3.17;;;1.02;;
29984;SDS011;17387;42.690;23.328;2022-09-21T12:00:20;3.35;;;1.15;;
29984;SDS011;17387;42.690;23.328;2022-09-21T12:13:48;3.92;;;0.93;;
29984;SDS011;17387;42.690;23.328;2022-09-21T12:21:47;3.78;;;1.05;;
29984;SDS011;17387;42.690;23.328;2022-09-21T12:24:19;2.13;;;1.13;;
29984;SDS011;17387;42.690;23.328;2022-09-21T12:26:52;4.70;;;1.40;;
29984;SDS011;17387;42.690;23.328;2022-09-21T12:32:21;17.50;;;9.30;;
29984;SDS011;17387;42.690;23.328;2022-09-21T12:34:59;3.78;;;2.30;;
29984;SDS011;17387;42.690;23.328;2022-09-21T12:37:37;1.83;;;1.15;;
29984;SDS011;17387;42.690;23.328;2022-09-21T12:40:12;7.60;;;3.20;;
29984;SDS011;17387;42.690;23.328;2022-09-21T12:48:30;5.65;;;2.42;;
29984;SDS011;17387;42.690;23.328;2022-09-21T12:53:25;1.55;;;1.23;;
29984;SDS011;17387;42.690;23.328;2022-09-21T13:09:25;5.32;;;1.60;;
29984;SDS011;17387;42.690;23.328;2022-09-21T13:11:54;4.05;;;1.25;;
29984;SDS011;17387;42.690;23.328;2022-09-21T13:14:24;2.40;;;0.97;;
29984;SDS011;17387;42.690;23.328;2022-09-21T13:16:59;2.13;;;0.82;;
29984;SDS011;17387;42.690;23.328;2022-09-21T13:19:28;2.33;;;1.05;;
29984;SDS011;17387;42.690;23.328;2022-09-21T13:24:40;1.08;;;0.90;;
29984;SDS011;17387;42.690;23.328;2022-09-21T13:27:07;2.05;;;0.82;;
29984;SDS011;17387;42.690;23.328;2022-09-21T13:29:34;1.02;;;0.90;;
29984;SDS011;17387;42.690;23.328;2022-09-21T13:32:01;5.75;;;1.15;;
29984;SDS011;17387;42.690;23.328;2022-09-21T13:34:48;4.65;;;1.38;;
29984;SDS011;17387;42.690;23.328;2022-09-21T13:45:12;1.98;;;1.00;;
29984;SDS011;17387;42.690;23.328;2022-09-21T13:47:49;1.40;;;0.98;;
29984;SDS011;17387;42.690;23.328;2022-09-21T13:50:22;1.92;;;1.30;;
29984;SDS011;17387;42.690;23.328;2022-09-21T13:53:02;4.80;;;1.70;;
29984;SDS011;17387;42.690;23.328;2022-09-21T14:03:59;3.22;;;1.60;;
29984;SDS011;17387;42.690;23.328;2022-09-21T14:06:49;4.35;;;2.28;;
29984;SDS011;17387;42.690;23.328;2022-09-21T14:09:39;2.78;;;1.60;;
29984;SDS011;17387;42.690;23.328;2022-09-21T14:12:09;3.83;;;2.67;;
29984;SDS011;17387;42.690;23.328;2022-09-21T14:15:07;4.03;;;2.25;;
29984;SDS011;17387;42.690;23.328;2022-09-21T14:21:15;3.45;;;2.40;;
29984;SDS011;17387;42.690;23.328;2022-09-21T14:26:54;3.92;;;2.38;;
29984;SDS011;17387;42.690;23.328;2022-09-21T14:29:30;3.20;;;2.30;;
29984;SDS011;17387;42.690;23.328;2022-09-21T14:32:09;3.40;;;2.45;;
29984;SDS011;17387;42.690;23.328;2022-09-21T14:34:40;2.45;;;1.70;;
29984;SDS011;17387;42.690;23.328;2022-09-21T14:37:19;2.05;;;1.80;;
29984;SDS011;17387;42.690;23.328;2022-09-21T14:39:51;3.25;;;2.10;;
29984;SDS011;17387;42.690;23.328;2022-09-21T14:42:18;4.78;;;2.22;;
29984;SDS011;17387;42.690;23.328;2022-09-21T14:44:47;4.38;;;2.42;;
29984;SDS011;17387;42.690;23.328;2022-09-21T15:00:39;4.60;;;3.33;;
29984;SDS011;17387;42.690;23.328;2022-09-21T15:05:43;3.05;;;2.35;;
29984;SDS011;17387;42.690;23.328;2022-09-21T15:11:27;2.80;;;2.35;;
29984;SDS011;17387;42.690;23.328;2022-09-21T15:16:44;6.50;;;3.05;;
29984;SDS011;17387;42.690;23.328;2022-09-21T15:19:19;5.25;;;2.55;;
29984;SDS011;17387;42.690;23.328;2022-09-21T15:26:44;6.65;;;2.53;;
29984;SDS011;17387;42.690;23.328;2022-09-21T15:29:20;3.05;;;2.40;;
29984;SDS011;17387;42.690;23.328;2022-09-21T15:31:50;2.40;;;1.98;;
29984;SDS011;17387;42.690;23.328;2022-09-21T15:34:16;3.15;;;2.17;;
29984;SDS011;17387;42.690;23.328;2022-09-21T15:36:42;3.92;;;2.60;;
29984;SDS011;17387;42.690;23.328;2022-09-21T15:39:21;3.95;;;2.72;;
29984;SDS011;17387;42.690;23.328;2022-09-21T15:41:49;3.95;;;2.28;;
29984;SDS011;17387;42.690;23.328;2022-09-21T15:44:43;5.13;;;2.75;;
29984;SDS011;17387;42.690;23.328;2022-09-21T15:47:12;4.95;;;2.63;;
29984;SDS011;17387;42.690;23.328;2022-09-21T15:49:40;5.28;;;2.47;;
29984;SDS011;17387;42.690;23.328;2022-09-21T15:57:27;4.00;;;2.45;;
29984;SDS011;17387;42.690;23.328;2022-09-21T16:00:05;2.45;;;2.20;;
29984;SDS011;17387;42.690;23.328;2022-09-21T16:03:01;4.50;;;2.65;;
29984;SDS011;17387;42.690;23.328;2022-09-21T16:05:42;2.20;;;1.80;;
29984;SDS011;17387;42.690;23.328;2022-09-21T16:08:17;4.22;;;2.95;;
29984;SDS011;17387;42.690;23.328;2022-09-21T16:10:46;4.18;;;2.50;;
29984;SDS011;17387;42.690;23.328;2022-09-21T16:15:59;4.65;;;2.42;;
29984;SDS011;17387;42.690;23.328;2022-09-21T16:18:31;2.78;;;2.03;;
29984;SDS011;17387;42.690;23.328;2022-09-21T16:21:06;3.53;;;2.65;;
29984;SDS011;17387;42.690;23.328;2022-09-21T16:23:37;6.88;;;3.47;;
29984;SDS011;17387;42.690;23.328;2022-09-21T16:26:03;3.83;;;2.72;;
29984;SDS011;17387;42.690;23.328;2022-09-21T16:31:20;2.40;;;2.03;;
29984;SDS011;17387;42.690;23.328;2022-09-21T16:33:56;4.22;;;2.60;;
29984;SDS011;17387;42.690;23.328;2022-09-21T16:38:50;7.50;;;2.88;;
29984;SDS011;17387;42.690;23.328;2022-09-21T16:41:19;7.90;;;3.05;;
29984;SDS011;17387;42.690;23.328;2022-09-21T16:43:50;5.60;;;2.78;;
29984;SDS011;17387;42.690;23.328;2022-09-21T16:46:16;4.30;;;2.90;;
29984;SDS011;17387;42.690;23.328;2022-09-21T16:48:42;8.07;;;3.33;;
29984;SDS011;17387;42.690;23.328;2022-09-21T16:51:10;6.55;;;3.90;;
29984;SDS011;17387;42.690;23.328;2022-09-21T16:53:36;8.75;;;4.53;;
29984;SDS011;17387;42.690;23.328;2022-09-21T16:56:02;7.72;;;4.32;;
29984;SDS011;17387;42.690;23.328;2022-09-21T16:58:28;9.38;;;4.43;;
29984;SDS011;17387;42.690;23.328;2022-09-21T17:00:53;7.35;;;4.50;;
29984;SDS011;17387;42.690;23.328;2022-09-21T17:03:19;5.43;;;4.00;;
29984;SDS011;17387;42.690;23.328;2022-09-21T17:05:45;8.27;;;4.72;;
29984;SDS011;17387;42.690;23.328;2022-09-21T17:08:11;11.45;;;5.43;;
29984;SDS011;17387;42.690;23.328;2022-09-21T17:10:38;9.10;;;5.40;;
29984;SDS011;17387;42.690;23.328;2022-09-21T17:13:08;9.57;;;5.75;;
29984;SDS011;17387;42.690;23.328;2022-09-21T17:15:37;9.77;;;6.13;;
29984;SDS011;17387;42.690;23.328;2022-09-21T17:18:09;9.20;;;6.40;;
29984;SDS011;17387;42.690;23.328;2022-09-21T17:20:39;11.82;;;7.03;;
29984;SDS011;17387;42.690;23.328;2022-09-21T17:23:06;13.45;;;7.70;;
29984;SDS011;17387;42.690;23.328;2022-09-21T17:25:33;9.38;;;6.85;;
29984;SDS011;17387;42.690;23.328;2022-09-21T17:28:00;11.60;;;7.38;;
29984;SDS011;17387;42.690;23.328;2022-09-21T17:30:27;10.98;;;6.68;;
29984;SDS011;17387;42.690;23.328;2022-09-21T17:32:53;12.00;;;6.82;;
29984;SDS011;17387;42.690;23.328;2022-09-21T17:37:57;10.85;;;7.70;;
29984;SDS011;17387;42.690;23.328;2022-09-21T17:40:22;9.43;;;7.40;;
29984;SDS011;17387;42.690;23.328;2022-09-21T17:42:49;12.18;;;8.45;;
29984;SDS011;17387;42.690;23.328;2022-09-21T17:47:52;11.70;;;7.93;;
29984;SDS011;17387;42.690;23.328;2022-09-21T17:50:25;11.10;;;8.02;;
29984;SDS011;17387;42.690;23.328;2022-09-21T17:52:52;12.32;;;7.47;;
29984;SDS011;17387;42.690;23.328;2022-09-21T17:55:37;12.43;;;8.00;;
29984;SDS011;17387;42.690;23.328;2022-09-21T18:03:28;10.07;;;7.63;;
29984;SDS011;17387;42.690;23.328;2022-09-21T18:05:56;9.18;;;6.93;;
29984;SDS011;17387;42.690;23.328;2022-09-21T18:08:29;8.77;;;7.22;;
29984;SDS011;17387;42.690;23.328;2022-09-21T18:21:46;11.40;;;8.10;;
29984;SDS011;17387;42.690;23.328;2022-09-21T18:26:46;11.52;;;8.73;;
29984;SDS011;17387;42.690;23.328;2022-09-21T18:37:54;11.93;;;8.15;;
29984;SDS011;17387;42.690;23.328;2022-09-21T18:45:41;11.63;;;8.17;;
29984;SDS011;17387;42.690;23.328;2022-09-21T18:56:11;11.93;;;9.32;;
29984;SDS011;17387;42.690;23.328;2022-09-21T18:58:37;13.07;;;9.68;;
29984;SDS011;17387;42.690;23.328;2022-09-21T19:01:09;12.15;;;9.65;;
29984;SDS011;17387;42.690;23.328;2022-09-21T19:03:36;10.98;;;8.25;;
29984;SDS011;17387;42.690;23.328;2022-09-21T19:12:03;11.95;;;9.70;;
29984;SDS011;17387;42.690;23.328;2022-09-21T19:22:34;12.82;;;9.18;;
29984;SDS011;17387;42.690;23.328;2022-09-21T19:27:51;12.68;;;9.93;;
29984;SDS011;17387;42.690;23.328;2022-09-21T19:30:22;13.50;;;9.73;;
29984;SDS011;17387;42.690;23.328;2022-09-21T19:32:52;14.57;;;10.98;;
29984;SDS011;17387;42.690;23.328;2022-09-21T19:35:23;11.90;;;9.95;;
29984;SDS011;17387;42.690;23.328;2022-09-21T19:37:56;13.30;;;11.23;;
29984;SDS011;17387;42.690;23.328;2022-09-21T19:40:28;16.83;;;11.13;;